Why, Arizona
Current Conditions -  °F | °C
As of 6:56 AM on Wednesday 28 Jan 2015 (Local Time) from KGXF Reporting Station
Few Clouds Few Clouds  
Wind Chill: 11°   Ceiling: Unl
Heat Index: 11°   Visibility: 10mi
Dew Point: 10°   Wind: 6mph
Humidity: 95%   Direction: 150°SSE
Pressure: 30.15"   Gusts: NA
Location:  32.5298°N, 112.879°W
Report Text: KGXF 281356Z 15005KT 10SM FEW250 11/10 A3015 RMK AO2A CONTRAILS SLP206 T01050098
Loading
Personal Weather Stations






























Interactive Weather Map New forecast layout! Learn more

10-Day Weather Forecast

Advertisements
Track Severe Weather on mobile